createdAt,value
2023-12-22T00:02:58.389Z,0.70
2023-12-22T00:08:02.173Z,0.77
2023-12-22T00:13:04.027Z,0.98
2023-12-22T00:18:08.091Z,0.70
2023-12-22T00:23:09.640Z,0.73
2023-12-22T00:28:11.239Z,0.90
2023-12-22T00:33:12.999Z,0.77
2023-12-22T00:38:15.674Z,0.80
2023-12-22T00:43:17.323Z,0.85
2023-12-22T00:48:19.450Z,0.82
2023-12-22T00:53:21.127Z,0.80
2023-12-22T00:58:22.832Z,1.10
2023-12-22T01:03:24.523Z,0.70
2023-12-22T01:08:26.184Z,0.38
2023-12-22T01:13:27.716Z,0.20
2023-12-22T01:18:31.245Z,0.30
2023-12-22T01:23:32.908Z,0.32
2023-12-22T01:28:35.875Z,0.40
2023-12-22T01:33:37.550Z,0.40
2023-12-22T01:38:39.091Z,0.55
2023-12-22T01:43:40.740Z,0.30
2023-12-22T01:48:42.695Z,0.55
2023-12-22T01:53:46.560Z,0.63
2023-12-22T01:58:48.308Z,0.40
2023-12-22T02:03:55.665Z,0.60
2023-12-22T02:08:58.966Z,0.65
2023-12-22T02:14:00.799Z,0.80
2023-12-22T02:19:16.539Z,1.02
2023-12-22T02:24:18.117Z,0.80
2023-12-22T02:29:20.558Z,0.93
2023-12-22T02:34:24.077Z,0.60
2023-12-22T02:39:25.896Z,1.00
2023-12-22T02:44:28.219Z,0.70
2023-12-22T02:49:29.760Z,1.00
2023-12-22T02:54:32.814Z,0.75
2023-12-22T02:59:34.425Z,0.70
2023-12-22T03:04:36.085Z,0.70
2023-12-22T03:09:39.271Z,0.75
2023-12-22T03:14:41.041Z,0.40
2023-12-22T03:19:42.649Z,0.50
2023-12-22T03:24:44.694Z,0.63
2023-12-22T03:29:46.215Z,0.68
2023-12-22T03:34:47.799Z,0.73
2023-12-22T03:39:49.407Z,0.65
2023-12-22T03:44:50.928Z,0.95
2023-12-22T03:49:52.593Z,0.93
2023-12-22T03:54:54.169Z,0.80
2023-12-22T03:59:55.696Z,0.93
2023-12-22T04:04:57.320Z,1.20
2023-12-22T04:09:58.899Z,0.90
2023-12-22T04:15:00.524Z,1.23
2023-12-22T04:20:02.672Z,1.10
2023-12-22T04:25:04.625Z,1.40
2023-12-22T04:30:06.779Z,1.13
2023-12-22T04:35:08.763Z,1.35
2023-12-22T04:40:10.945Z,1.50
2023-12-22T04:45:12.763Z,1.17
2023-12-22T04:50:14.418Z,1.20
2023-12-22T04:55:16.707Z,1.13
2023-12-22T05:00:18.559Z,1.50
2023-12-22T05:05:20.228Z,1.33
2023-12-22T05:10:21.858Z,1.15
2023-12-22T05:15:23.421Z,2.00
2023-12-22T05:20:24.965Z,1.75
2023-12-22T05:25:26.667Z,1.60
2023-12-22T05:30:28.255Z,1.60
2023-12-22T05:35:29.854Z,1.77
2023-12-22T05:40:32.773Z,1.95
2023-12-22T05:45:34.350Z,1.75
2023-12-22T05:50:36.047Z,1.80
2023-12-22T05:55:37.758Z,1.70
2023-12-22T06:00:39.375Z,1.70
2023-12-22T06:05:41.264Z,1.60
2023-12-22T06:10:42.958Z,1.48
2023-12-22T06:15:44.519Z,1.70
2023-12-22T06:20:46.107Z,1.77
2023-12-22T06:25:48.226Z,1.67
2023-12-22T06:30:49.844Z,1.85
2023-12-22T06:35:54.737Z,1.40
2023-12-22T06:40:56.654Z,2.20
2023-12-22T06:45:59.504Z,1.63
2023-12-22T06:51:01.030Z,2.30
2023-12-22T06:56:02.631Z,2.30
2023-12-22T07:01:04.578Z,2.47
2023-12-22T07:06:06.382Z,1.80
2023-12-22T07:11:08.480Z,2.00
2023-12-22T07:16:12.832Z,1.83
2023-12-22T07:21:18.981Z,2.83
2023-12-22T07:26:22.584Z,2.25
2023-12-22T07:31:24.225Z,2.65
2023-12-22T07:36:25.869Z,3.75
2023-12-22T07:41:27.478Z,2.22
2023-12-22T07:46:29.468Z,1.88
2023-12-22T07:51:31.075Z,2.63
2023-12-22T07:56:32.662Z,2.60
2023-12-22T08:01:34.862Z,2.08
2023-12-22T08:06:36.971Z,2.55
2023-12-22T08:11:38.684Z,2.15
2023-12-22T08:16:40.323Z,2.53
2023-12-22T08:21:46.230Z,2.33
2023-12-22T08:26:49.283Z,2.33
2023-12-22T08:31:51.278Z,1.50
2023-12-22T08:36:53.086Z,2.15
2023-12-22T08:41:55.116Z,2.50
2023-12-22T08:46:56.685Z,2.03
2023-12-22T08:51:58.321Z,1.83
2023-12-22T08:56:59.860Z,2.38
2023-12-22T09:02:01.482Z,2.20
2023-12-22T09:07:03.078Z,2.42
2023-12-22T09:12:05.866Z,2.47
2023-12-22T09:17:07.522Z,1.90
2023-12-22T09:22:09.079Z,2.00
2023-12-22T09:27:10.708Z,1.98
2023-12-22T09:32:12.391Z,2.58
2023-12-22T09:37:14.062Z,3.45
2023-12-22T09:42:16.664Z,2.78
2023-12-22T09:47:19.379Z,2.08
2023-12-22T09:52:21.962Z,2.10
2023-12-22T09:57:28.442Z,2.65
2023-12-22T10:02:32.643Z,2.50
2023-12-22T10:07:35.266Z,2.22
2023-12-22T10:12:38.878Z,2.58
2023-12-22T10:17:41.679Z,2.78
2023-12-22T10:22:43.328Z,2.55
2023-12-22T10:27:44.969Z,2.25
2023-12-22T10:32:46.564Z,2.38
2023-12-22T10:37:49.446Z,2.67
2023-12-22T10:42:51.977Z,2.70
2023-12-22T10:47:54.581Z,2.40
2023-12-22T10:52:56.319Z,2.80
2023-12-22T10:58:03.901Z,3.00
2023-12-22T11:03:09.549Z,3.67
2023-12-22T11:08:13.163Z,3.03
2023-12-22T11:13:16.993Z,3.58
2023-12-22T11:18:20.832Z,1.70
2023-12-22T11:23:24.776Z,2.22
2023-12-22T11:28:26.688Z,2.22
2023-12-22T11:33:30.311Z,1.85
2023-12-22T11:38:32.920Z,2.00
2023-12-22T11:43:36.249Z,2.08
2023-12-22T11:48:38.845Z,1.98
2023-12-22T11:53:40.445Z,2.00
2023-12-22T11:58:53.872Z,2.78
2023-12-22T12:03:59.965Z,3.58
2023-12-22T12:09:05.566Z,1.85
2023-12-22T12:14:12.935Z,2.85
2023-12-22T12:19:15.773Z,3.60
2023-12-22T12:24:18.832Z,2.83
2023-12-22T12:29:22.942Z,2.85
2023-12-22T12:34:24.757Z,2.22
2023-12-22T12:39:32.397Z,2.25
2023-12-22T12:44:34.897Z,2.13
2023-12-22T12:49:36.905Z,1.40
2023-12-22T12:54:38.598Z,1.50
2023-12-22T12:59:40.159Z,1.63
2023-12-22T13:04:41.763Z,1.00
2023-12-22T13:09:43.336Z,1.30
2023-12-22T13:14:44.874Z,0.93
2023-12-22T13:19:46.755Z,1.15
2023-12-22T13:24:58.190Z,1.58
2023-12-22T13:29:59.903Z,2.40
2023-12-22T13:35:01.868Z,2.30
2023-12-22T13:40:09.614Z,2.00
2023-12-22T13:45:12.070Z,1.85
2023-12-22T13:50:17.515Z,1.70
2023-12-22T13:55:20.747Z,1.80
2023-12-22T14:00:22.985Z,1.52
2023-12-22T14:05:24.847Z,1.70
2023-12-22T14:10:26.579Z,1.30
2023-12-22T14:15:37.160Z,1.02
2023-12-22T14:20:44.497Z,0.70
2023-12-22T14:25:46.374Z,0.70
2023-12-22T14:30:47.955Z,0.98
2023-12-22T14:35:49.527Z,0.80
2023-12-22T14:40:51.202Z,1.98
2023-12-22T14:45:52.801Z,1.00
2023-12-22T14:50:55.306Z,0.98
2023-12-22T14:55:58.803Z,0.80
2023-12-22T15:01:01.456Z,0.63
2023-12-22T15:06:04.793Z,0.88
2023-12-22T15:11:07.779Z,0.80
2023-12-22T15:16:09.814Z,0.90
2023-12-22T15:21:22.804Z,0.55
2023-12-22T15:26:26.685Z,0.90
2023-12-22T15:31:31.168Z,0.90
2023-12-22T15:36:33.262Z,0.73
2023-12-22T15:41:35.552Z,0.70
2023-12-22T15:46:37.195Z,0.70
2023-12-22T15:51:38.780Z,0.70
2023-12-22T15:56:40.318Z,0.40
2023-12-22T16:01:45.863Z,0.60
2023-12-22T16:06:47.460Z,0.60
2023-12-22T16:11:49.071Z,0.73
2023-12-22T16:16:50.636Z,0.70
2023-12-22T16:21:53.616Z,0.70
2023-12-22T16:26:55.221Z,0.70
2023-12-22T16:31:56.787Z,0.60
2023-12-22T16:36:58.364Z,0.63
2023-12-22T16:41:59.931Z,0.80
2023-12-22T16:47:02.112Z,0.60
2023-12-22T16:52:03.977Z,0.55
2023-12-22T16:57:05.629Z,0.60
2023-12-22T17:02:21.021Z,0.50
2023-12-22T17:07:31.760Z,0.85
2023-12-22T17:12:38.103Z,0.70
2023-12-22T17:17:39.816Z,0.60
2023-12-22T17:22:41.473Z,1.02
2023-12-22T17:27:43.314Z,0.73
2023-12-22T17:32:44.974Z,0.70
2023-12-22T17:37:46.657Z,0.82
2023-12-22T17:42:49.916Z,0.55
2023-12-22T17:47:52.099Z,0.70
2023-12-22T17:52:53.916Z,0.68
2023-12-22T17:57:55.493Z,0.85
2023-12-22T18:02:57.067Z,0.80
2023-12-22T18:07:58.600Z,0.68
2023-12-22T18:13:00.198Z,0.70
2023-12-22T18:18:02.237Z,0.40
2023-12-22T18:23:04.951Z,0.88
2023-12-22T18:28:08.302Z,0.50
2023-12-22T18:33:09.921Z,0.43
2023-12-22T18:38:11.566Z,0.50
2023-12-22T18:43:13.459Z,0.90
2023-12-22T18:48:15.753Z,0.50
2023-12-22T18:53:17.847Z,0.55
2023-12-22T18:58:21.403Z,1.25
2023-12-22T19:03:23.093Z,0.50
2023-12-22T19:08:24.919Z,0.80
2023-12-22T19:13:26.527Z,0.70
2023-12-22T19:18:28.571Z,0.63
2023-12-22T19:23:30.534Z,0.80
2023-12-22T19:28:32.120Z,0.85
2023-12-22T19:33:33.755Z,1.25
2023-12-22T19:38:35.455Z,0.85
2023-12-22T19:43:37.020Z,0.70
2023-12-22T19:48:38.740Z,1.02
2023-12-22T19:53:40.353Z,0.80
2023-12-22T19:58:41.952Z,0.80
2023-12-22T20:03:43.620Z,0.68
2023-12-22T20:08:47.544Z,1.42
2023-12-22T20:13:49.334Z,0.70
2023-12-22T20:18:51.058Z,1.02
2023-12-22T20:23:54.996Z,1.48
2023-12-22T20:28:56.859Z,1.00
2023-12-22T20:33:58.479Z,1.08
2023-12-22T20:39:00.104Z,0.80
2023-12-22T20:44:01.667Z,1.13
2023-12-22T20:49:04.641Z,1.27
2023-12-22T20:54:06.342Z,1.15
2023-12-22T20:59:08.991Z,2.72
2023-12-22T21:04:10.630Z,1.20
2023-12-22T21:09:12.341Z,0.95
2023-12-22T21:14:13.991Z,0.90
2023-12-22T21:19:15.680Z,3.05
2023-12-22T21:24:17.317Z,1.40
2023-12-22T21:29:18.974Z,1.17
2023-12-22T21:34:20.665Z,1.80
2023-12-22T21:39:22.198Z,1.42
2023-12-22T21:44:23.851Z,0.80
2023-12-22T21:49:25.447Z,0.95
2023-12-22T21:54:27.997Z,1.70
2023-12-22T21:59:29.595Z,1.38
2023-12-22T22:04:31.479Z,1.50
2023-12-22T22:09:33.067Z,1.50
2023-12-22T22:14:34.671Z,1.15
2023-12-22T22:19:36.506Z,2.50
2023-12-22T22:24:38.713Z,1.33
2023-12-22T22:29:41.934Z,1.80
2023-12-22T22:34:43.489Z,2.30
2023-12-22T22:39:45.033Z,0.90
2023-12-22T22:44:46.565Z,0.90
2023-12-22T22:49:48.128Z,1.73
2023-12-22T22:54:49.708Z,1.42
2023-12-22T22:59:51.293Z,1.33
2023-12-22T23:04:52.953Z,1.10
2023-12-22T23:09:54.781Z,0.68
2023-12-22T23:14:58.585Z,1.05
2023-12-22T23:20:00.335Z,1.13
2023-12-22T23:25:01.926Z,1.20
2023-12-22T23:30:07.568Z,0.95
2023-12-22T23:35:09.278Z,1.23
2023-12-22T23:40:11.502Z,0.85
2023-12-22T23:45:15.546Z,0.90
2023-12-22T23:50:17.148Z,1.40
2023-12-22T23:55:18.769Z,1.10
